createdAt,value
2023-04-16T00:00:59.024Z,980.05
2023-04-16T00:01:59.733Z,980.06
2023-04-16T00:03:00.118Z,980.03
2023-04-16T00:04:00.738Z,980.04
2023-04-16T00:05:01.213Z,980.06
2023-04-16T00:06:01.379Z,980.04
2023-04-16T00:07:02.032Z,980.06
2023-04-16T00:08:02.677Z,980.05
2023-04-16T00:09:03.311Z,980.04
2023-04-16T00:10:03.950Z,980.04
2023-04-16T00:11:04.660Z,980.05
2023-04-16T00:12:05.279Z,980.05
2023-04-16T00:13:05.826Z,980.04
2023-04-16T00:14:06.405Z,980.08
2023-04-16T00:15:07.024Z,980.07
2023-04-16T00:16:07.662Z,980.06
2023-04-16T00:17:08.470Z,980.05
2023-04-16T00:18:08.617Z,980.04
2023-04-16T00:19:09.728Z,980.06
2023-04-16T00:20:09.999Z,980.09
2023-04-16T00:21:10.667Z,980.08
2023-04-16T00:22:11.314Z,980.10
2023-04-16T00:23:11.924Z,980.08
2023-04-16T00:24:12.594Z,980.08
2023-04-16T00:25:13.200Z,980.08
2023-04-16T00:26:13.752Z,980.08
2023-04-16T00:27:14.305Z,980.10
2023-04-16T00:28:14.846Z,980.09
2023-04-16T00:29:15.386Z,980.08
2023-04-16T00:30:15.923Z,980.09
2023-04-16T00:31:16.525Z,980.08
2023-04-16T00:32:17.218Z,980.07
2023-04-16T00:33:17.802Z,980.06
2023-04-16T00:34:18.355Z,980.07
2023-04-16T00:35:18.917Z,980.05
2023-04-16T00:36:19.465Z,980.06
2023-04-16T00:37:20.064Z,980.08
2023-04-16T00:38:20.654Z,980.08
2023-04-16T00:39:21.252Z,980.08
2023-04-16T00:40:21.810Z,980.10
2023-04-16T00:41:22.368Z,980.10
2023-04-16T00:42:22.988Z,980.10
2023-04-16T00:43:23.634Z,980.14
2023-04-16T00:44:24.275Z,980.12
2023-04-16T00:45:24.878Z,980.13
2023-04-16T00:46:25.533Z,980.12
2023-04-16T00:47:25.602Z,980.10
2023-04-16T00:48:26.293Z,980.11
2023-04-16T00:49:26.958Z,980.13
2023-04-16T00:50:27.611Z,980.13
2023-04-16T00:51:28.254Z,980.16
2023-04-16T00:52:28.912Z,980.13
2023-04-16T00:53:29.550Z,980.14
2023-04-16T00:54:30.173Z,980.13
2023-04-16T00:55:30.825Z,980.14
2023-04-16T00:56:31.483Z,980.13
2023-04-16T00:57:32.138Z,980.10
2023-04-16T00:58:32.797Z,980.13
2023-04-16T00:59:33.444Z,980.14
2023-04-16T01:00:34.100Z,980.12
2023-04-16T01:01:34.794Z,980.13
2023-04-16T01:02:35.602Z,980.12
2023-04-16T01:03:35.974Z,980.09
2023-04-16T01:05:36.721Z,980.12
2023-04-16T01:06:37.347Z,980.11
2023-04-16T01:07:38.183Z,980.13
2023-04-16T01:08:38.270Z,980.11
2023-04-16T01:09:38.901Z,980.13
2023-04-16T01:10:39.532Z,980.14
2023-04-16T01:11:40.207Z,980.14
2023-04-16T01:12:40.856Z,980.11
2023-04-16T01:13:41.445Z,980.13
2023-04-16T01:14:42.066Z,980.14
2023-04-16T01:15:42.751Z,980.13
2023-04-16T01:16:43.368Z,980.14
2023-04-16T01:17:44.013Z,980.15
2023-04-16T01:18:44.689Z,980.15
2023-04-16T01:19:45.334Z,980.14
2023-04-16T01:20:45.974Z,980.13
2023-04-16T01:21:46.631Z,980.15
2023-04-16T01:22:47.285Z,980.15
2023-04-16T01:23:47.929Z,980.16
2023-04-16T01:24:48.570Z,980.16
2023-04-16T01:25:49.202Z,980.15
2023-04-16T01:26:49.934Z,980.16
2023-04-16T01:27:50.584Z,980.16
2023-04-16T01:28:51.224Z,980.16
2023-04-16T01:29:51.855Z,980.19
2023-04-16T01:30:52.482Z,980.20
2023-04-16T01:31:53.246Z,980.21
2023-04-16T01:32:53.521Z,980.21
2023-04-16T01:33:54.165Z,980.21
2023-04-16T01:34:54.819Z,980.19
2023-04-16T01:35:55.460Z,980.21
2023-04-16T01:36:56.103Z,980.20
2023-04-16T01:37:56.751Z,980.20
2023-04-16T01:38:57.398Z,980.25
2023-04-16T01:39:58.038Z,980.25
2023-04-16T01:40:58.681Z,980.24
2023-04-16T01:41:59.316Z,980.24
2023-04-16T01:42:59.953Z,980.25
2023-04-16T01:44:00.591Z,980.27
2023-04-16T01:45:01.214Z,980.25
2023-04-16T01:46:01.855Z,980.25
2023-04-16T01:47:02.574Z,980.24
2023-04-16T01:48:02.695Z,980.27
2023-04-16T01:49:03.376Z,980.26
2023-04-16T01:50:04.037Z,980.26
2023-04-16T01:51:04.683Z,980.26
2023-04-16T01:52:05.329Z,980.28
2023-04-16T01:53:05.982Z,980.26
2023-04-16T01:54:06.616Z,980.27
2023-04-16T01:55:07.288Z,980.25
2023-04-16T01:56:07.941Z,980.27
2023-04-16T01:57:08.584Z,980.28
2023-04-16T01:58:09.226Z,980.25
2023-04-16T01:59:10.024Z,980.23
2023-04-16T02:00:10.280Z,980.25
2023-04-16T02:01:10.966Z,980.26
2023-04-16T02:02:11.734Z,980.24
2023-04-16T02:03:12.018Z,980.23
2023-04-16T02:04:12.275Z,980.24
2023-04-16T02:05:12.948Z,980.27
2023-04-16T02:06:13.604Z,980.24
2023-04-16T02:07:14.253Z,980.22
2023-04-16T02:08:14.885Z,980.23
2023-04-16T02:09:15.541Z,980.23
2023-04-16T02:10:16.172Z,980.24
2023-04-16T02:11:16.799Z,980.27
2023-04-16T02:12:17.417Z,980.26
2023-04-16T02:13:18.053Z,980.29
2023-04-16T02:14:18.692Z,980.25
2023-04-16T02:15:19.356Z,980.26
2023-04-16T02:16:20.076Z,980.24
2023-04-16T02:17:20.773Z,980.30
2023-04-16T02:18:20.885Z,980.25
2023-04-16T02:19:21.532Z,980.26
2023-04-16T02:20:22.196Z,980.28
2023-04-16T02:21:22.866Z,980.25
2023-04-16T02:22:23.517Z,980.26
2023-04-16T02:23:24.158Z,980.25
2023-04-16T02:24:24.806Z,980.25
2023-04-16T02:25:25.449Z,980.29
2023-04-16T02:26:26.100Z,980.28
2023-04-16T02:27:26.757Z,980.27
2023-04-16T02:28:27.386Z,980.29
2023-04-16T02:29:28.021Z,980.29
2023-04-16T02:30:28.662Z,980.29
2023-04-16T02:31:29.351Z,980.28
2023-04-16T02:32:30.010Z,980.32
2023-04-16T02:33:30.671Z,980.33
2023-04-16T02:34:31.352Z,980.33
2023-04-16T02:35:32.007Z,980.33
2023-04-16T02:36:32.651Z,980.33
2023-04-16T02:37:33.292Z,980.36
2023-04-16T02:38:33.946Z,980.36
2023-04-16T02:39:34.592Z,980.35
2023-04-16T02:40:35.257Z,980.32
2023-04-16T02:41:35.973Z,980.34
2023-04-16T02:42:36.635Z,980.34
2023-04-16T02:43:37.431Z,980.37
2023-04-16T02:44:37.410Z,980.35
2023-04-16T02:45:38.099Z,980.36
2023-04-16T02:46:38.775Z,980.35
2023-04-16T02:47:39.438Z,980.41
2023-04-16T02:48:40.098Z,980.38
2023-04-16T02:49:40.729Z,980.38
2023-04-16T02:50:41.364Z,980.40
2023-04-16T02:51:42.015Z,980.41
2023-04-16T02:52:42.660Z,980.39
2023-04-16T02:53:43.315Z,980.40
2023-04-16T02:54:43.957Z,980.39
2023-04-16T02:55:44.590Z,980.36
2023-04-16T02:56:45.224Z,980.42
2023-04-16T02:57:45.874Z,980.38
2023-04-16T02:58:46.518Z,980.37
2023-04-16T02:59:47.161Z,980.37
2023-04-16T03:00:47.801Z,980.39
2023-04-16T03:01:48.630Z,980.39
2023-04-16T03:02:49.001Z,980.41
2023-04-16T03:03:49.216Z,980.42
2023-04-16T03:04:49.868Z,980.39
2023-04-16T03:05:50.501Z,980.38
2023-04-16T03:06:51.144Z,980.39
2023-04-16T03:07:51.775Z,980.38
2023-04-16T03:08:52.394Z,980.41
2023-04-16T03:09:53.026Z,980.43
2023-04-16T03:10:53.654Z,980.41
2023-04-16T03:11:54.302Z,980.42
2023-04-16T03:12:54.955Z,980.42
2023-04-16T03:13:55.612Z,980.43
2023-04-16T03:14:56.273Z,980.43
2023-04-16T03:15:56.984Z,980.42
2023-04-16T03:16:57.630Z,980.45
2023-04-16T03:17:58.294Z,980.45
2023-04-16T03:18:58.987Z,980.46
2023-04-16T03:19:59.639Z,980.44
2023-04-16T03:21:00.265Z,980.47
2023-04-16T03:22:00.895Z,980.47
2023-04-16T03:23:01.546Z,980.49
2023-04-16T03:24:02.231Z,980.49
2023-04-16T03:25:02.899Z,980.49
2023-04-16T03:26:03.611Z,980.51
2023-04-16T03:27:03.691Z,980.50
2023-04-16T03:28:04.336Z,980.48
2023-04-16T03:29:04.989Z,980.49
2023-04-16T03:30:05.632Z,980.52
2023-04-16T03:31:06.320Z,980.52
2023-04-16T03:32:06.990Z,980.53
2023-04-16T03:33:07.664Z,980.53
2023-04-16T03:34:08.310Z,980.53
2023-04-16T03:35:08.965Z,980.55
2023-04-16T03:36:09.600Z,980.56
2023-04-16T03:37:10.242Z,980.57
2023-04-16T03:38:10.904Z,980.57
2023-04-16T03:39:11.715Z,980.57
2023-04-16T03:40:11.903Z,980.57
2023-04-16T03:41:12.583Z,980.58
2023-04-16T03:42:13.222Z,980.59
2023-04-16T03:43:13.874Z,980.56
2023-04-16T03:44:14.512Z,980.58
2023-04-16T03:45:15.143Z,980.61
2023-04-16T03:46:15.829Z,980.63
2023-04-16T03:47:16.552Z,980.64
2023-04-16T03:48:17.204Z,980.64
2023-04-16T03:49:17.835Z,980.64
2023-04-16T03:50:18.464Z,980.64
2023-04-16T03:51:19.092Z,980.61
2023-04-16T03:52:19.727Z,980.64
2023-04-16T03:53:20.388Z,980.62
2023-04-16T03:54:22.813Z,980.62
2023-04-16T03:55:21.372Z,980.62
2023-04-16T03:56:22.014Z,980.63
2023-04-16T03:57:22.633Z,980.63
2023-04-16T03:58:23.280Z,980.62
2023-04-16T03:59:23.921Z,980.63
2023-04-16T04:00:24.581Z,980.68
2023-04-16T04:01:25.245Z,980.64
2023-04-16T04:02:26.081Z,980.66
2023-04-16T04:03:26.629Z,980.66
2023-04-16T04:04:26.903Z,980.66
2023-04-16T04:05:27.013Z,980.70
2023-04-16T04:06:27.667Z,980.68
2023-04-16T04:07:28.317Z,980.70
2023-04-16T04:08:28.966Z,980.71
2023-04-16T04:09:29.620Z,980.70
2023-04-16T04:10:30.261Z,980.70
2023-04-16T04:11:30.901Z,980.69
2023-04-16T04:12:31.573Z,980.72
2023-04-16T04:13:32.197Z,980.72
2023-04-16T04:14:32.836Z,980.72
2023-04-16T04:15:33.474Z,980.72
2023-04-16T04:16:34.133Z,980.73
2023-04-16T04:17:34.831Z,980.75
2023-04-16T04:18:35.486Z,980.75
2023-04-16T04:19:36.873Z,980.76
2023-04-16T04:20:36.632Z,980.78
2023-04-16T04:21:37.301Z,980.79
2023-04-16T04:22:37.943Z,980.81
2023-04-16T04:23:38.591Z,980.81
2023-04-16T04:24:39.238Z,980.81
2023-04-16T04:25:39.874Z,980.80
2023-04-16T04:26:40.522Z,980.80
2023-04-16T04:27:41.143Z,980.81
2023-04-16T04:28:41.797Z,980.79
2023-04-16T04:29:42.442Z,980.82
2023-04-16T04:30:43.122Z,980.81
2023-04-16T04:31:43.834Z,980.85
2023-04-16T04:32:43.993Z,980.85
2023-04-16T04:33:44.083Z,980.84
2023-04-16T04:34:44.739Z,980.84
2023-04-16T04:35:45.371Z,980.84
2023-04-16T04:36:46.008Z,980.86
2023-04-16T04:37:46.676Z,980.86
2023-04-16T04:38:47.346Z,980.87
2023-04-16T04:39:47.999Z,980.88
2023-04-16T04:40:48.653Z,980.89
2023-04-16T04:41:49.287Z,980.92
2023-04-16T04:42:49.935Z,980.90
2023-04-16T04:43:50.568Z,980.91
2023-04-16T04:44:51.237Z,980.90
2023-04-16T04:45:51.924Z,980.92
2023-04-16T04:46:52.587Z,980.93
2023-04-16T04:47:53.244Z,980.95
2023-04-16T04:48:53.919Z,980.95
2023-04-16T04:49:54.550Z,980.96
2023-04-16T04:50:55.190Z,980.98
2023-04-16T04:51:55.836Z,980.97
2023-04-16T04:52:56.473Z,981.01
2023-04-16T04:53:57.115Z,981.01
2023-04-16T04:54:57.766Z,981.03
2023-04-16T04:56:05.450Z,981.01
2023-04-16T04:56:58.720Z,981.03
2023-04-16T04:57:59.362Z,981.05
2023-04-16T04:59:00.047Z,981.05
2023-04-16T05:00:00.698Z,981.05
2023-04-16T05:01:01.405Z,981.06
2023-04-16T05:02:01.553Z,981.05
2023-04-16T05:03:02.324Z,981.06
2023-04-16T05:04:02.516Z,981.07
2023-04-16T05:05:02.661Z,981.09
2023-04-16T05:06:03.345Z,981.12
2023-04-16T05:07:04.001Z,981.11
2023-04-16T05:08:04.654Z,981.12
2023-04-16T05:09:05.306Z,981.14
2023-04-16T05:10:05.951Z,981.17
2023-04-16T05:11:06.580Z,981.17
2023-04-16T05:12:07.231Z,981.18
2023-04-16T05:13:07.911Z,981.21
2023-04-16T05:14:08.580Z,981.23
2023-04-16T05:15:09.245Z,981.22
2023-04-16T05:16:09.916Z,981.24
2023-04-16T05:17:10.604Z,981.25
2023-04-16T05:18:11.274Z,981.25
2023-04-16T05:19:12.199Z,981.26
2023-04-16T05:20:12.395Z,981.26
2023-04-16T05:21:13.070Z,981.28
2023-04-16T05:22:13.739Z,981.29
2023-04-16T05:23:14.411Z,981.27
2023-04-16T05:24:15.229Z,981.30
2023-04-16T05:25:15.308Z,981.30
2023-04-16T05:26:15.974Z,981.30
2023-04-16T05:27:16.640Z,981.34
2023-04-16T05:28:17.299Z,981.36
2023-04-16T05:29:17.998Z,981.36
2023-04-16T05:30:18.657Z,981.37
2023-04-16T05:31:19.474Z,981.35
2023-04-16T05:32:19.647Z,981.34
2023-04-16T05:33:20.317Z,981.36
2023-04-16T05:34:20.973Z,981.34
2023-04-16T05:35:21.620Z,981.36
2023-04-16T05:36:22.284Z,981.40
2023-04-16T05:37:22.940Z,981.41
2023-04-16T05:38:23.616Z,981.42
2023-04-16T05:39:24.286Z,981.43
2023-04-16T05:40:24.963Z,981.43
2023-04-16T05:41:25.622Z,981.43
2023-04-16T05:42:26.265Z,981.44
2023-04-16T05:43:26.919Z,981.45
2023-04-16T05:44:27.611Z,981.44
2023-04-16T05:45:28.291Z,981.44
2023-04-16T05:46:28.974Z,981.44
2023-04-16T05:47:29.680Z,981.46
2023-04-16T05:48:30.387Z,981.48
2023-04-16T05:49:31.058Z,981.50
2023-04-16T05:50:31.726Z,981.50
2023-04-16T05:51:32.382Z,981.51
2023-04-16T05:52:33.035Z,981.53
2023-04-16T05:53:33.687Z,981.54
2023-04-16T05:54:34.355Z,981.55
2023-04-16T05:55:35.012Z,981.56
2023-04-16T05:56:35.653Z,981.59
2023-04-16T05:57:36.322Z,981.58
2023-04-16T05:58:36.985Z,981.60
2023-04-16T05:59:37.650Z,981.62
2023-04-16T06:00:37.804Z,981.61
2023-04-16T06:01:38.459Z,981.64
2023-04-16T06:02:39.212Z,981.61
2023-04-16T06:03:39.432Z,981.63
2023-04-16T06:04:39.542Z,981.66
2023-04-16T06:05:40.227Z,981.64
2023-04-16T06:06:40.917Z,981.68
2023-04-16T06:07:41.564Z,981.65
2023-04-16T06:08:42.240Z,981.66
2023-04-16T06:09:42.910Z,981.68
2023-04-16T06:10:43.582Z,981.66
2023-04-16T06:11:44.264Z,981.67
2023-04-16T06:12:44.922Z,981.68
2023-04-16T06:13:45.589Z,981.68
2023-04-16T06:14:46.240Z,981.68
2023-04-16T06:15:46.950Z,981.70
2023-04-16T06:16:47.071Z,981.69
2023-04-16T06:17:47.788Z,981.69
2023-04-16T06:18:48.488Z,981.71
2023-04-16T06:19:49.153Z,981.73
2023-04-16T06:20:49.815Z,981.72
2023-04-16T06:21:50.460Z,981.72
2023-04-16T06:22:51.100Z,981.74
2023-04-16T06:23:51.748Z,981.72
2023-04-16T06:24:52.406Z,981.71
2023-04-16T06:25:53.077Z,981.74
2023-04-16T06:26:53.743Z,981.73
2023-04-16T06:27:54.410Z,981.75
2023-04-16T06:28:55.067Z,981.74
2023-04-16T06:29:55.726Z,981.76
2023-04-16T06:30:56.375Z,981.78
2023-04-16T06:31:57.051Z,981.80
2023-04-16T06:32:57.744Z,981.79
2023-04-16T06:33:58.405Z,981.80
2023-04-16T06:34:59.057Z,981.78
2023-04-16T06:35:59.713Z,981.79
2023-04-16T06:37:00.361Z,981.82
2023-04-16T06:38:00.995Z,981.83
2023-04-16T06:39:01.632Z,981.83
2023-04-16T06:40:02.303Z,981.84
2023-04-16T06:41:02.970Z,981.84
2023-04-16T06:42:03.616Z,981.82
2023-04-16T06:43:04.269Z,981.85
2023-04-16T06:44:04.932Z,981.85
2023-04-16T06:45:05.587Z,981.85
2023-04-16T06:46:06.247Z,981.87
2023-04-16T06:47:06.932Z,981.86
2023-04-16T06:48:07.128Z,981.87
2023-04-16T06:49:07.877Z,981.89
2023-04-16T06:50:08.001Z,981.87
2023-04-16T06:51:08.669Z,981.89
2023-04-16T06:52:09.318Z,981.91
2023-04-16T06:53:09.976Z,981.90
2023-04-16T06:54:10.618Z,981.90
2023-04-16T06:55:11.256Z,981.91
2023-04-16T06:56:11.904Z,981.88
2023-04-16T06:57:12.557Z,981.94
2023-04-16T06:58:13.240Z,981.94
2023-04-16T06:59:13.895Z,981.96
2023-04-16T07:00:14.574Z,981.97
2023-04-16T07:01:15.287Z,981.97
2023-04-16T07:02:16.078Z,981.96
2023-04-16T07:03:16.360Z,981.94
2023-04-16T07:04:16.643Z,981.96
2023-04-16T07:05:16.777Z,981.97
2023-04-16T07:06:17.433Z,981.97
2023-04-16T07:07:18.107Z,982.00
2023-04-16T07:08:18.746Z,982.00
2023-04-16T07:09:19.398Z,982.00
2023-04-16T07:10:20.049Z,981.97
2023-04-16T07:11:20.686Z,981.98
2023-04-16T07:12:22.646Z,982.00
2023-04-16T07:13:21.892Z,982.00
2023-04-16T07:14:22.558Z,982.01
2023-04-16T07:15:23.210Z,981.97
2023-04-16T07:16:23.877Z,982.00
2023-04-16T07:17:24.624Z,982.02
2023-04-16T07:18:25.274Z,982.03
2023-04-16T07:19:25.916Z,982.02
2023-04-16T07:20:26.557Z,982.02
2023-04-16T07:21:27.233Z,982.04
2023-04-16T07:22:27.893Z,982.04
2023-04-16T07:23:28.545Z,982.05
2023-04-16T07:24:29.202Z,982.07
2023-04-16T07:25:29.856Z,982.04
2023-04-16T07:26:30.536Z,982.09
2023-04-16T07:27:31.200Z,982.11
2023-04-16T07:28:31.840Z,982.14
2023-04-16T07:29:32.496Z,982.11
2023-04-16T07:30:33.153Z,982.12
2023-04-16T07:31:33.812Z,982.11
2023-04-16T07:32:34.525Z,982.13
2023-04-16T07:33:35.206Z,982.13
2023-04-16T07:34:35.875Z,982.12
2023-04-16T07:35:36.545Z,982.15
2023-04-16T07:36:37.211Z,982.11
2023-04-16T07:37:37.862Z,982.12
2023-04-16T07:38:38.556Z,982.16
2023-04-16T07:39:39.222Z,982.19
2023-04-16T07:40:39.879Z,982.17
2023-04-16T07:41:40.549Z,982.16
2023-04-16T07:42:41.258Z,982.17
2023-04-16T07:43:41.931Z,982.18
2023-04-16T07:44:42.621Z,982.20
2023-04-16T07:45:43.300Z,982.22
2023-04-16T07:46:47.413Z,982.19
2023-04-16T07:47:44.378Z,982.24
2023-04-16T07:48:45.040Z,982.27
2023-04-16T07:49:45.699Z,982.25
2023-04-16T07:50:46.352Z,982.26
2023-04-16T07:51:47.022Z,982.29
2023-04-16T07:52:47.691Z,982.30
2023-04-16T07:53:48.353Z,982.32
2023-04-16T07:54:48.992Z,982.30
2023-04-16T07:55:49.641Z,982.30
2023-04-16T07:56:50.281Z,982.31
2023-04-16T07:57:50.914Z,982.30
2023-04-16T07:58:51.564Z,982.33
2023-04-16T07:59:52.232Z,982.34
2023-04-16T08:00:52.872Z,982.37
2023-04-16T08:01:53.524Z,982.35
2023-04-16T08:02:54.385Z,982.37
2023-04-16T08:03:54.640Z,982.36
2023-04-16T08:04:54.869Z,982.39
2023-04-16T08:05:54.997Z,982.40
2023-04-16T08:06:55.732Z,982.42
2023-04-16T08:07:55.842Z,982.40
2023-04-16T08:08:56.487Z,982.42
2023-04-16T08:09:57.147Z,982.43
2023-04-16T08:10:57.802Z,982.41
2023-04-16T08:11:58.444Z,982.42
2023-04-16T08:12:59.106Z,982.43
2023-04-16T08:13:59.763Z,982.45
2023-04-16T08:15:00.418Z,982.47
2023-04-16T08:16:01.105Z,982.47
2023-04-16T08:17:01.777Z,982.43
2023-04-16T08:18:02.501Z,982.45
2023-04-16T08:19:02.603Z,982.46
2023-04-16T08:20:03.261Z,982.49
2023-04-16T08:21:03.905Z,982.50
2023-04-16T08:22:04.573Z,982.51
2023-04-16T08:23:05.243Z,982.49
2023-04-16T08:24:05.911Z,982.54
2023-04-16T08:25:06.557Z,982.57
2023-04-16T08:26:07.204Z,982.53
2023-04-16T08:27:17.741Z,982.57
2023-04-16T08:28:08.211Z,982.60
2023-04-16T08:29:09.156Z,982.57
2023-04-16T08:30:09.405Z,982.57
2023-04-16T08:31:10.135Z,982.54
2023-04-16T08:32:10.225Z,982.56
2023-04-16T08:33:10.888Z,982.58
2023-04-16T08:34:11.573Z,982.54
2023-04-16T08:35:12.221Z,982.55
2023-04-16T08:36:12.898Z,982.57
2023-04-16T08:37:13.539Z,982.61
2023-04-16T08:38:14.241Z,982.62
2023-04-16T08:39:14.894Z,982.66
2023-04-16T08:40:15.521Z,982.64
2023-04-16T08:41:16.174Z,982.57
2023-04-16T08:42:16.818Z,982.66
2023-04-16T08:43:17.450Z,982.64
2023-04-16T08:44:18.099Z,982.67
2023-04-16T08:45:18.752Z,982.68
2023-04-16T08:46:19.438Z,982.72
2023-04-16T08:47:19.598Z,982.70
2023-04-16T08:48:19.719Z,982.74
2023-04-16T08:49:20.369Z,982.70
2023-04-16T08:50:21.032Z,982.73
2023-04-16T08:51:21.698Z,982.74
2023-04-16T08:52:22.385Z,982.72
2023-04-16T08:53:22.605Z,982.74
2023-04-16T08:54:22.837Z,982.79
2023-04-16T08:55:23.496Z,982.78
2023-04-16T08:56:24.143Z,982.79
2023-04-16T08:57:24.798Z,982.80
2023-04-16T08:58:25.443Z,982.83
2023-04-16T08:59:26.087Z,982.79
2023-04-16T09:00:26.738Z,982.82
2023-04-16T09:01:27.424Z,982.80
2023-04-16T09:02:28.269Z,982.81
2023-04-16T09:03:28.603Z,982.82
2023-04-16T09:04:28.825Z,982.84
2023-04-16T09:05:28.974Z,982.83
2023-04-16T09:06:29.637Z,982.85
2023-04-16T09:07:30.269Z,982.84
2023-04-16T09:08:30.924Z,982.90
2023-04-16T09:09:33.410Z,982.89
2023-04-16T09:10:32.195Z,982.88
2023-04-16T09:11:32.821Z,982.90
2023-04-16T09:12:33.470Z,982.93
2023-04-16T09:13:34.134Z,982.90
2023-04-16T09:14:34.772Z,982.92
2023-04-16T09:15:35.442Z,982.94
2023-04-16T09:16:36.188Z,982.95
2023-04-16T09:17:36.309Z,983.02
2023-04-16T09:18:36.964Z,983.02
2023-04-16T09:19:37.592Z,983.04
2023-04-16T09:20:38.221Z,983.04
2023-04-16T09:21:38.852Z,983.04
2023-04-16T09:22:39.479Z,983.04
2023-04-16T09:23:40.174Z,983.04
2023-04-16T09:24:40.802Z,983.06
2023-04-16T09:25:41.418Z,983.05
2023-04-16T09:26:42.076Z,983.06
2023-04-16T09:27:42.715Z,983.05
2023-04-16T09:28:43.349Z,983.01
2023-04-16T09:29:43.996Z,983.02
2023-04-16T09:30:44.655Z,983.02
2023-04-16T09:31:45.310Z,983.04
2023-04-16T09:32:45.990Z,983.07
2023-04-16T09:33:46.644Z,983.08
2023-04-16T09:34:47.294Z,983.09
2023-04-16T09:35:47.938Z,983.08
2023-04-16T09:36:48.595Z,983.10
2023-04-16T09:37:49.257Z,983.12
2023-04-16T09:38:49.981Z,983.15
2023-04-16T09:39:50.613Z,983.16
2023-04-16T09:40:51.251Z,983.17
2023-04-16T09:41:51.872Z,983.15
2023-04-16T09:42:52.497Z,983.17
2023-04-16T09:43:53.140Z,983.21
2023-04-16T09:44:53.765Z,983.21
2023-04-16T09:45:54.422Z,983.24
2023-04-16T09:46:55.065Z,983.22
2023-04-16T09:47:55.732Z,983.25
2023-04-16T09:48:56.415Z,983.24
2023-04-16T09:49:57.041Z,983.24
2023-04-16T09:50:57.679Z,983.20
2023-04-16T09:51:58.311Z,983.27
2023-04-16T09:52:58.938Z,983.27
2023-04-16T09:53:59.568Z,983.31
2023-04-16T09:55:00.198Z,983.31
2023-04-16T09:56:00.851Z,983.32
2023-04-16T09:57:01.549Z,983.31
2023-04-16T09:58:01.802Z,983.31
2023-04-16T09:59:02.067Z,983.31
2023-04-16T10:00:02.071Z,983.38
2023-04-16T10:01:02.830Z,983.33
2023-04-16T10:02:15.619Z,983.32
2023-04-16T10:03:03.433Z,983.34
2023-04-16T10:04:03.655Z,983.36
2023-04-16T10:05:03.736Z,983.33
2023-04-16T10:06:04.383Z,983.37
2023-04-16T10:07:05.059Z,983.40
2023-04-16T10:08:05.700Z,983.36
2023-04-16T10:09:06.355Z,983.34
2023-04-16T10:10:07.004Z,983.33
2023-04-16T10:11:07.668Z,983.38
2023-04-16T10:12:08.323Z,983.38
2023-04-16T10:13:08.991Z,983.35
2023-04-16T10:14:09.651Z,983.38
2023-04-16T10:15:10.323Z,983.37
2023-04-16T10:16:10.995Z,983.36
2023-04-16T10:17:11.706Z,983.34
2023-04-16T10:18:11.896Z,983.38
2023-04-16T10:19:12.232Z,983.36
2023-04-16T10:20:12.545Z,983.37
2023-04-16T10:21:13.192Z,983.44
2023-04-16T10:22:13.845Z,983.42
2023-04-16T10:23:15.522Z,983.42
2023-04-16T10:24:14.989Z,983.44
2023-04-16T10:25:15.614Z,983.42
2023-04-16T10:26:16.258Z,983.45
2023-04-16T10:27:16.893Z,983.43
2023-04-16T10:28:17.521Z,983.44
2023-04-16T10:29:18.142Z,983.43
2023-04-16T10:30:18.763Z,983.47
2023-04-16T10:31:19.533Z,983.46
2023-04-16T10:32:19.693Z,983.49
2023-04-16T10:33:20.340Z,983.47
2023-04-16T10:34:20.985Z,983.49
2023-04-16T10:35:21.645Z,983.48
2023-04-16T10:36:22.322Z,983.49
2023-04-16T10:37:22.988Z,983.48
2023-04-16T10:38:23.689Z,983.48
2023-04-16T10:39:24.367Z,983.47
2023-04-16T10:40:25.043Z,983.49
2023-04-16T10:41:25.702Z,983.53
2023-04-16T10:42:26.340Z,983.51
2023-04-16T10:43:27.013Z,983.53
2023-04-16T10:44:27.671Z,983.52
2023-04-16T10:45:28.305Z,983.54
2023-04-16T10:46:28.950Z,983.52
2023-04-16T10:47:29.648Z,983.55
2023-04-16T10:48:38.538Z,983.56
2023-04-16T10:49:30.024Z,983.55
2023-04-16T10:50:30.642Z,983.57
2023-04-16T10:51:31.276Z,983.60
2023-04-16T10:52:31.931Z,983.60
2023-04-16T10:53:32.544Z,983.58
2023-04-16T10:54:33.181Z,983.63
2023-04-16T10:55:33.819Z,983.61
2023-04-16T10:56:34.458Z,983.60
2023-04-16T10:57:35.089Z,983.60
2023-04-16T10:58:35.715Z,983.62
2023-04-16T10:59:36.354Z,983.62
2023-04-16T11:00:36.999Z,983.62
2023-04-16T11:01:37.859Z,983.64
2023-04-16T11:02:38.383Z,983.60
2023-04-16T11:03:38.761Z,983.58
2023-04-16T11:04:39.085Z,983.61
2023-04-16T11:05:39.352Z,983.62
2023-04-16T11:06:39.984Z,983.61
2023-04-16T11:07:40.617Z,983.59
2023-04-16T11:08:53.327Z,983.63
2023-04-16T11:09:41.602Z,983.61
2023-04-16T11:10:42.256Z,983.62
2023-04-16T11:11:42.908Z,983.64
2023-04-16T11:12:43.558Z,983.62
2023-04-16T11:13:44.218Z,983.61
2023-04-16T11:14:44.879Z,983.59
2023-04-16T11:15:45.554Z,983.60
2023-04-16T11:16:46.199Z,983.64
2023-04-16T11:17:46.870Z,983.61
2023-04-16T11:18:51.484Z,983.61
2023-04-16T11:19:47.200Z,983.64
2023-04-16T11:20:47.848Z,983.61
2023-04-16T11:21:48.492Z,983.64
2023-04-16T11:22:49.173Z,983.62
2023-04-16T11:23:49.878Z,983.64
2023-04-16T11:24:50.522Z,983.64
2023-04-16T11:25:51.148Z,983.71
2023-04-16T11:26:51.779Z,983.66
2023-04-16T11:27:52.406Z,983.68
2023-04-16T11:28:53.053Z,983.67
2023-04-16T11:29:53.701Z,983.67
2023-04-16T11:30:54.363Z,983.65
2023-04-16T11:31:55.077Z,983.68
2023-04-16T11:32:55.323Z,983.67
2023-04-16T11:33:55.430Z,983.70
2023-04-16T11:34:56.085Z,983.72
2023-04-16T11:35:56.747Z,983.72
2023-04-16T11:36:57.387Z,983.71
2023-04-16T11:37:58.032Z,983.72
2023-04-16T11:38:58.667Z,983.75
2023-04-16T11:39:59.332Z,983.76
2023-04-16T11:40:59.997Z,983.75
2023-04-16T11:42:00.703Z,983.74
2023-04-16T11:43:01.373Z,983.75
2023-04-16T11:44:02.010Z,983.76
2023-04-16T11:45:02.642Z,983.78
2023-04-16T11:46:12.937Z,983.79
2023-04-16T11:47:03.618Z,983.80
2023-04-16T11:48:04.349Z,983.77
2023-04-16T11:49:04.988Z,983.78
2023-04-16T11:50:05.645Z,983.78
2023-04-16T11:51:06.300Z,983.78
2023-04-16T11:52:06.943Z,983.77
2023-04-16T11:53:07.587Z,983.78
2023-04-16T11:54:11.159Z,983.79
2023-04-16T11:55:08.482Z,983.79
2023-04-16T11:56:09.124Z,983.80
2023-04-16T11:57:09.761Z,983.81
2023-04-16T11:58:10.414Z,983.82
2023-04-16T11:59:11.497Z,983.83
2023-04-16T12:00:12.186Z,983.82
2023-04-16T12:01:11.656Z,983.84
2023-04-16T12:02:12.368Z,983.81
2023-04-16T12:03:12.690Z,983.84
2023-04-16T12:04:12.972Z,983.86
2023-04-16T12:05:13.262Z,983.87
2023-04-16T12:06:13.348Z,983.86
2023-04-16T12:07:13.998Z,983.87
2023-04-16T12:08:14.661Z,983.87
2023-04-16T12:09:15.300Z,983.84
2023-04-16T12:10:15.968Z,983.89
2023-04-16T12:11:16.631Z,983.90
2023-04-16T12:12:17.291Z,983.87
2023-04-16T12:13:17.970Z,983.86
2023-04-16T12:14:18.636Z,983.88
2023-04-16T12:15:19.290Z,983.90
2023-04-16T12:16:20.003Z,983.88
2023-04-16T12:17:20.661Z,983.92
2023-04-16T12:18:21.292Z,983.90
2023-04-16T12:19:21.944Z,983.90
2023-04-16T12:20:22.609Z,983.93
2023-04-16T12:21:23.264Z,983.91
2023-04-16T12:22:23.906Z,983.92
2023-04-16T12:23:24.539Z,983.93
2023-04-16T12:24:25.178Z,983.95
2023-04-16T12:25:25.822Z,983.93
2023-04-16T12:26:26.453Z,983.95
2023-04-16T12:27:27.079Z,983.93
2023-04-16T12:28:27.714Z,983.94
2023-04-16T12:29:28.355Z,983.92
2023-04-16T12:30:29.000Z,983.94
2023-04-16T12:31:29.658Z,983.93
2023-04-16T12:32:30.319Z,983.93
2023-04-16T12:33:31.001Z,983.90
2023-04-16T12:34:49.447Z,983.92
2023-04-16T12:35:31.973Z,983.96
2023-04-16T12:36:32.611Z,983.93
2023-04-16T12:37:33.265Z,983.90